sensor_id;sensor_type;location;lat;lon;timestamp;P1;durP1;ratioP1;P2;durP2;ratioP2
39890;SDS011;25564;53.312;9.790;2024-01-10T00:00:34;21.30;;;10.40;;
39890;SDS011;25564;53.312;9.790;2024-01-10T00:03:05;21.77;;;10.18;;
39890;SDS011;25564;53.312;9.790;2024-01-10T00:05:36;22.13;;;10.35;;
39890;SDS011;25564;53.312;9.790;2024-01-10T00:08:08;27.67;;;10.90;;
39890;SDS011;25564;53.312;9.790;2024-01-10T00:10:39;36.47;;;11.23;;
39890;SDS011;25564;53.312;9.790;2024-01-10T00:13:10;27.40;;;10.68;;
39890;SDS011;25564;53.312;9.790;2024-01-10T00:15:42;45.50;;;10.70;;
39890;SDS011;25564;53.312;9.790;2024-01-10T00:18:13;29.63;;;9.53;;
39890;SDS011;25564;53.312;9.790;2024-01-10T00:20:45;24.73;;;9.30;;
39890;SDS011;25564;53.312;9.790;2024-01-10T00:23:16;30.90;;;10.87;;
39890;SDS011;25564;53.312;9.790;2024-01-10T00:25:48;21.98;;;9.80;;
39890;SDS011;25564;53.312;9.790;2024-01-10T00:28:19;31.63;;;10.47;;
39890;SDS011;25564;53.312;9.790;2024-01-10T00:30:51;24.77;;;9.52;;
39890;SDS011;25564;53.312;9.790;2024-01-10T00:33:23;23.73;;;8.77;;
39890;SDS011;25564;53.312;9.790;2024-01-10T00:35:54;30.43;;;10.63;;
39890;SDS011;25564;53.312;9.790;2024-01-10T00:38:26;30.10;;;9.93;;
39890;SDS011;25564;53.312;9.790;2024-01-10T00:40:58;27.53;;;10.10;;
39890;SDS011;25564;53.312;9.790;2024-01-10T00:43:30;36.77;;;10.23;;
39890;SDS011;25564;53.312;9.790;2024-01-10T00:46:01;28.97;;;10.57;;
39890;SDS011;25564;53.312;9.790;2024-01-10T00:48:34;43.57;;;11.20;;
39890;SDS011;25564;53.312;9.790;2024-01-10T00:51:05;40.43;;;11.07;;
39890;SDS011;25564;53.312;9.790;2024-01-10T00:53:39;48.63;;;10.53;;
39890;SDS011;25564;53.312;9.790;2024-01-10T00:56:11;42.13;;;10.87;;
39890;SDS011;25564;53.312;9.790;2024-01-10T00:58:43;33.73;;;10.17;;
39890;SDS011;25564;53.312;9.790;2024-01-10T01:01:15;33.83;;;10.60;;
39890;SDS011;25564;53.312;9.790;2024-01-10T01:03:46;27.47;;;8.30;;
39890;SDS011;25564;53.312;9.790;2024-01-10T01:06:18;32.10;;;11.07;;
39890;SDS011;25564;53.312;9.790;2024-01-10T01:08:50;24.90;;;9.20;;
39890;SDS011;25564;53.312;9.790;2024-01-10T01:11:22;47.27;;;12.90;;
39890;SDS011;25564;53.312;9.790;2024-01-10T01:13:53;31.37;;;10.43;;
39890;SDS011;25564;53.312;9.790;2024-01-10T01:16:25;46.50;;;10.30;;
39890;SDS011;25564;53.312;9.790;2024-01-10T01:18:56;41.57;;;11.60;;
39890;SDS011;25564;53.312;9.790;2024-01-10T01:21:27;35.70;;;10.30;;
39890;SDS011;25564;53.312;9.790;2024-01-10T01:23:59;30.57;;;9.87;;
39890;SDS011;25564;53.312;9.790;2024-01-10T01:26:30;28.47;;;11.17;;
39890;SDS011;25564;53.312;9.790;2024-01-10T01:29:01;32.53;;;10.33;;
39890;SDS011;25564;53.312;9.790;2024-01-10T01:31:34;27.77;;;10.27;;
39890;SDS011;25564;53.312;9.790;2024-01-10T01:34:05;39.50;;;12.03;;
39890;SDS011;25564;53.312;9.790;2024-01-10T01:36:36;31.40;;;10.83;;
39890;SDS011;25564;53.312;9.790;2024-01-10T01:39:08;27.13;;;10.40;;
39890;SDS011;25564;53.312;9.790;2024-01-10T01:41:39;29.83;;;10.47;;
39890;SDS011;25564;53.312;9.790;2024-01-10T01:44:11;26.10;;;10.33;;
39890;SDS011;25564;53.312;9.790;2024-01-10T01:46:42;28.77;;;9.83;;
39890;SDS011;25564;53.312;9.790;2024-01-10T01:49:14;24.17;;;9.83;;
39890;SDS011;25564;53.312;9.790;2024-01-10T01:51:46;22.70;;;8.93;;
39890;SDS011;25564;53.312;9.790;2024-01-10T01:54:17;18.48;;;8.75;;
39890;SDS011;25564;53.312;9.790;2024-01-10T01:56:50;27.67;;;9.97;;
39890;SDS011;25564;53.312;9.790;2024-01-10T01:59:22;22.02;;;10.32;;
39890;SDS011;25564;53.312;9.790;2024-01-10T02:01:54;20.53;;;9.70;;
39890;SDS011;25564;53.312;9.790;2024-01-10T02:04:27;22.97;;;9.93;;
39890;SDS011;25564;53.312;9.790;2024-01-10T02:07:00;21.53;;;8.60;;
39890;SDS011;25564;53.312;9.790;2024-01-10T02:09:31;28.20;;;11.07;;
39890;SDS011;25564;53.312;9.790;2024-01-10T02:12:03;24.70;;;9.55;;
39890;SDS011;25564;53.312;9.790;2024-01-10T02:14:35;19.73;;;10.00;;
39890;SDS011;25564;53.312;9.790;2024-01-10T02:17:07;21.08;;;9.68;;
39890;SDS011;25564;53.312;9.790;2024-01-10T02:19:38;22.38;;;9.27;;
39890;SDS011;25564;53.312;9.790;2024-01-10T02:22:09;26.17;;;9.77;;
39890;SDS011;25564;53.312;9.790;2024-01-10T02:24:42;21.77;;;9.82;;
39890;SDS011;25564;53.312;9.790;2024-01-10T02:27:13;23.17;;;9.63;;
39890;SDS011;25564;53.312;9.790;2024-01-10T02:29:45;18.38;;;8.90;;
39890;SDS011;25564;53.312;9.790;2024-01-10T02:36:08;20.15;;;9.02;;
39890;SDS011;25564;53.312;9.790;2024-01-10T02:38:39;21.33;;;9.80;;
39890;SDS011;25564;53.312;9.790;2024-01-10T02:41:11;19.67;;;8.90;;
39890;SDS011;25564;53.312;9.790;2024-01-10T02:43:42;24.40;;;8.70;;
39890;SDS011;25564;53.312;9.790;2024-01-10T02:46:14;18.23;;;8.75;;
39890;SDS011;25564;53.312;9.790;2024-01-10T02:48:46;19.20;;;9.33;;
39890;SDS011;25564;53.312;9.790;2024-01-10T02:51:17;22.63;;;9.55;;
39890;SDS011;25564;53.312;9.790;2024-01-10T02:53:49;19.20;;;9.05;;
39890;SDS011;25564;53.312;9.790;2024-01-10T02:56:20;21.27;;;9.35;;
39890;SDS011;25564;53.312;9.790;2024-01-10T02:58:55;17.35;;;8.32;;
39890;SDS011;25564;53.312;9.790;2024-01-10T03:01:26;15.10;;;7.75;;
39890;SDS011;25564;53.312;9.790;2024-01-10T03:03:57;19.02;;;7.78;;
39890;SDS011;25564;53.312;9.790;2024-01-10T03:06:29;21.52;;;8.90;;
39890;SDS011;25564;53.312;9.790;2024-01-10T03:09:00;23.00;;;8.30;;
39890;SDS011;25564;53.312;9.790;2024-01-10T03:11:32;15.68;;;7.63;;
39890;SDS011;25564;53.312;9.790;2024-01-10T03:14:09;17.42;;;7.63;;
39890;SDS011;25564;53.312;9.790;2024-01-10T03:16:41;16.38;;;8.60;;
39890;SDS011;25564;53.312;9.790;2024-01-10T03:19:13;17.30;;;7.68;;
39890;SDS011;25564;53.312;9.790;2024-01-10T03:21:44;16.85;;;8.43;;
39890;SDS011;25564;53.312;9.790;2024-01-10T03:24:15;16.95;;;8.23;;
39890;SDS011;25564;53.312;9.790;2024-01-10T03:26:47;20.25;;;8.15;;
39890;SDS011;25564;53.312;9.790;2024-01-10T03:29:19;19.38;;;7.32;;
39890;SDS011;25564;53.312;9.790;2024-01-10T03:31:50;19.00;;;7.57;;
39890;SDS011;25564;53.312;9.790;2024-01-10T03:34:21;17.95;;;7.60;;
39890;SDS011;25564;53.312;9.790;2024-01-10T03:36:53;13.27;;;5.57;;
39890;SDS011;25564;53.312;9.790;2024-01-10T03:39:24;14.77;;;7.03;;
39890;SDS011;25564;53.312;9.790;2024-01-10T03:41:56;15.13;;;7.03;;
39890;SDS011;25564;53.312;9.790;2024-01-10T03:44:27;18.80;;;7.30;;
39890;SDS011;25564;53.312;9.790;2024-01-10T03:46:58;15.70;;;6.10;;
39890;SDS011;25564;53.312;9.790;2024-01-10T03:49:30;14.82;;;7.13;;
39890;SDS011;25564;53.312;9.790;2024-01-10T03:52:01;14.68;;;7.20;;
39890;SDS011;25564;53.312;9.790;2024-01-10T03:54:33;12.07;;;6.13;;
39890;SDS011;25564;53.312;9.790;2024-01-10T03:57:05;17.20;;;6.88;;
39890;SDS011;25564;53.312;9.790;2024-01-10T03:59:36;17.02;;;7.70;;
39890;SDS011;25564;53.312;9.790;2024-01-10T04:02:07;15.18;;;7.03;;
39890;SDS011;25564;53.312;9.790;2024-01-10T04:04:39;17.13;;;7.10;;
39890;SDS011;25564;53.312;9.790;2024-01-10T04:07:10;13.07;;;6.43;;
39890;SDS011;25564;53.312;9.790;2024-01-10T04:09:43;15.77;;;6.15;;
39890;SDS011;25564;53.312;9.790;2024-01-10T04:12:14;23.45;;;8.48;;
39890;SDS011;25564;53.312;9.790;2024-01-10T04:14:46;12.20;;;5.78;;
39890;SDS011;25564;53.312;9.790;2024-01-10T04:17:17;16.40;;;7.20;;
39890;SDS011;25564;53.312;9.790;2024-01-10T04:19:49;16.17;;;6.85;;
39890;SDS011;25564;53.312;9.790;2024-01-10T04:22:20;17.23;;;7.75;;
39890;SDS011;25564;53.312;9.790;2024-01-10T04:24:52;22.55;;;8.32;;
39890;SDS011;25564;53.312;9.790;2024-01-10T04:27:23;16.67;;;7.22;;
39890;SDS011;25564;53.312;9.790;2024-01-10T04:29:55;16.00;;;7.57;;
39890;SDS011;25564;53.312;9.790;2024-01-10T04:32:26;17.80;;;7.25;;
39890;SDS011;25564;53.312;9.790;2024-01-10T04:34:58;21.60;;;7.80;;
39890;SDS011;25564;53.312;9.790;2024-01-10T04:37:29;15.60;;;8.00;;
39890;SDS011;25564;53.312;9.790;2024-01-10T04:40:00;17.25;;;8.25;;
39890;SDS011;25564;53.312;9.790;2024-01-10T04:42:32;20.48;;;8.63;;
39890;SDS011;25564;53.312;9.790;2024-01-10T04:45:03;18.60;;;7.22;;
39890;SDS011;25564;53.312;9.790;2024-01-10T04:47:35;21.10;;;8.10;;
39890;SDS011;25564;53.312;9.790;2024-01-10T04:50:07;21.13;;;8.95;;
39890;SDS011;25564;53.312;9.790;2024-01-10T04:52:44;22.60;;;7.72;;
39890;SDS011;25564;53.312;9.790;2024-01-10T04:55:15;20.90;;;8.57;;
39890;SDS011;25564;53.312;9.790;2024-01-10T04:57:46;23.98;;;9.27;;
39890;SDS011;25564;53.312;9.790;2024-01-10T05:00:19;23.02;;;7.78;;
39890;SDS011;25564;53.312;9.790;2024-01-10T05:02:52;21.23;;;8.02;;
39890;SDS011;25564;53.312;9.790;2024-01-10T05:05:25;17.08;;;7.57;;
39890;SDS011;25564;53.312;9.790;2024-01-10T05:07:56;17.13;;;7.57;;
39890;SDS011;25564;53.312;9.790;2024-01-10T05:10:28;18.20;;;8.20;;
39890;SDS011;25564;53.312;9.790;2024-01-10T05:12:59;22.27;;;9.25;;
39890;SDS011;25564;53.312;9.790;2024-01-10T05:15:31;20.58;;;8.80;;
39890;SDS011;25564;53.312;9.790;2024-01-10T05:18:02;18.13;;;7.97;;
39890;SDS011;25564;53.312;9.790;2024-01-10T05:20:34;19.45;;;8.40;;
39890;SDS011;25564;53.312;9.790;2024-01-10T05:23:06;19.88;;;7.78;;
39890;SDS011;25564;53.312;9.790;2024-01-10T05:25:38;17.38;;;7.97;;
39890;SDS011;25564;53.312;9.790;2024-01-10T05:28:09;16.70;;;7.82;;
39890;SDS011;25564;53.312;9.790;2024-01-10T05:30:41;20.85;;;8.52;;
39890;SDS011;25564;53.312;9.790;2024-01-10T05:33:14;20.85;;;9.27;;
39890;SDS011;25564;53.312;9.790;2024-01-10T05:35:45;22.58;;;9.38;;
39890;SDS011;25564;53.312;9.790;2024-01-10T05:38:17;22.92;;;8.95;;
39890;SDS011;25564;53.312;9.790;2024-01-10T05:40:48;20.42;;;8.07;;
39890;SDS011;25564;53.312;9.790;2024-01-10T05:43:20;14.85;;;7.72;;
39890;SDS011;25564;53.312;9.790;2024-01-10T05:45:52;21.23;;;9.23;;
39890;SDS011;25564;53.312;9.790;2024-01-10T05:48:24;17.58;;;8.60;;
39890;SDS011;25564;53.312;9.790;2024-01-10T05:50:55;20.20;;;9.18;;
39890;SDS011;25564;53.312;9.790;2024-01-10T05:53:27;21.83;;;9.27;;
39890;SDS011;25564;53.312;9.790;2024-01-10T05:55:59;20.95;;;8.77;;
39890;SDS011;25564;53.312;9.790;2024-01-10T05:58:32;23.27;;;9.43;;
39890;SDS011;25564;53.312;9.790;2024-01-10T06:01:03;20.70;;;8.30;;
39890;SDS011;25564;53.312;9.790;2024-01-10T06:03:36;25.13;;;10.25;;
39890;SDS011;25564;53.312;9.790;2024-01-10T06:06:08;21.25;;;8.63;;
39890;SDS011;25564;53.312;9.790;2024-01-10T06:08:40;22.65;;;10.38;;
39890;SDS011;25564;53.312;9.790;2024-01-10T06:11:12;20.25;;;9.25;;
39890;SDS011;25564;53.312;9.790;2024-01-10T06:13:43;25.90;;;9.20;;
39890;SDS011;25564;53.312;9.790;2024-01-10T06:16:24;21.40;;;8.48;;
39890;SDS011;25564;53.312;9.790;2024-01-10T06:18:55;24.23;;;10.10;;
39890;SDS011;25564;53.312;9.790;2024-01-10T06:21:27;20.65;;;9.38;;
39890;SDS011;25564;53.312;9.790;2024-01-10T06:23:58;19.90;;;8.82;;
39890;SDS011;25564;53.312;9.790;2024-01-10T06:26:30;25.45;;;10.48;;
39890;SDS011;25564;53.312;9.790;2024-01-10T06:29:01;23.20;;;8.93;;
39890;SDS011;25564;53.312;9.790;2024-01-10T06:31:33;27.52;;;10.13;;
39890;SDS011;25564;53.312;9.790;2024-01-10T06:34:05;24.52;;;9.18;;
39890;SDS011;25564;53.312;9.790;2024-01-10T06:36:36;25.02;;;9.25;;
39890;SDS011;25564;53.312;9.790;2024-01-10T06:39:09;31.85;;;9.23;;
39890;SDS011;25564;53.312;9.790;2024-01-10T06:41:45;30.73;;;8.65;;
39890;SDS011;25564;53.312;9.790;2024-01-10T06:44:17;37.22;;;10.57;;
39890;SDS011;25564;53.312;9.790;2024-01-10T06:46:49;51.08;;;10.05;;
39890;SDS011;25564;53.312;9.790;2024-01-10T06:49:20;23.48;;;7.15;;
39890;SDS011;25564;53.312;9.790;2024-01-10T06:51:52;21.52;;;7.88;;
39890;SDS011;25564;53.312;9.790;2024-01-10T06:54:23;31.45;;;8.60;;
39890;SDS011;25564;53.312;9.790;2024-01-10T06:56:55;17.63;;;7.65;;
39890;SDS011;25564;53.312;9.790;2024-01-10T06:59:26;20.47;;;6.80;;
39890;SDS011;25564;53.312;9.790;2024-01-10T07:01:57;22.55;;;8.13;;
39890;SDS011;25564;53.312;9.790;2024-01-10T07:04:30;23.25;;;7.55;;
39890;SDS011;25564;53.312;9.790;2024-01-10T07:07:03;20.02;;;8.05;;
39890;SDS011;25564;53.312;9.790;2024-01-10T07:09:35;17.70;;;7.13;;
39890;SDS011;25564;53.312;9.790;2024-01-10T07:12:06;18.65;;;7.22;;
39890;SDS011;25564;53.312;9.790;2024-01-10T07:14:38;18.77;;;8.60;;
39890;SDS011;25564;53.312;9.790;2024-01-10T07:17:10;20.50;;;7.72;;
39890;SDS011;25564;53.312;9.790;2024-01-10T07:19:44;21.48;;;7.50;;
39890;SDS011;25564;53.312;9.790;2024-01-10T07:22:17;18.23;;;7.75;;
39890;SDS011;25564;53.312;9.790;2024-01-10T07:24:49;22.27;;;8.13;;
39890;SDS011;25564;53.312;9.790;2024-01-10T07:27:20;23.90;;;9.02;;
39890;SDS011;25564;53.312;9.790;2024-01-10T07:29:52;21.55;;;7.82;;
39890;SDS011;25564;53.312;9.790;2024-01-10T07:32:23;17.98;;;6.28;;
39890;SDS011;25564;53.312;9.790;2024-01-10T07:34:55;21.58;;;7.38;;
39890;SDS011;25564;53.312;9.790;2024-01-10T07:37:26;22.55;;;7.97;;
39890;SDS011;25564;53.312;9.790;2024-01-10T07:39:58;26.80;;;7.93;;
39890;SDS011;25564;53.312;9.790;2024-01-10T07:42:30;19.35;;;7.40;;
39890;SDS011;25564;53.312;9.790;2024-01-10T07:45:02;19.40;;;7.83;;
39890;SDS011;25564;53.312;9.790;2024-01-10T07:47:35;21.27;;;8.30;;
39890;SDS011;25564;53.312;9.790;2024-01-10T07:50:10;19.80;;;7.83;;
39890;SDS011;25564;53.312;9.790;2024-01-10T07:52:46;17.92;;;7.95;;
39890;SDS011;25564;53.312;9.790;2024-01-10T07:55:17;20.50;;;6.73;;
39890;SDS011;25564;53.312;9.790;2024-01-10T07:57:49;17.63;;;6.93;;
39890;SDS011;25564;53.312;9.790;2024-01-10T08:00:20;18.90;;;7.77;;
39890;SDS011;25564;53.312;9.790;2024-01-10T08:02:52;21.20;;;7.70;;
39890;SDS011;25564;53.312;9.790;2024-01-10T08:05:23;21.43;;;8.13;;
39890;SDS011;25564;53.312;9.790;2024-01-10T08:07:55;21.48;;;7.75;;
39890;SDS011;25564;53.312;9.790;2024-01-10T08:10:27;18.93;;;8.07;;
39890;SDS011;25564;53.312;9.790;2024-01-10T08:12:59;23.50;;;8.97;;
39890;SDS011;25564;53.312;9.790;2024-01-10T08:15:31;20.27;;;8.03;;
39890;SDS011;25564;53.312;9.790;2024-01-10T08:18:05;23.33;;;8.50;;
39890;SDS011;25564;53.312;9.790;2024-01-10T08:20:38;23.25;;;8.80;;
39890;SDS011;25564;53.312;9.790;2024-01-10T08:23:10;27.37;;;9.60;;
39890;SDS011;25564;53.312;9.790;2024-01-10T08:25:41;30.13;;;10.15;;
39890;SDS011;25564;53.312;9.790;2024-01-10T08:28:15;24.52;;;8.32;;
39890;SDS011;25564;53.312;9.790;2024-01-10T08:30:48;23.70;;;9.70;;
39890;SDS011;25564;53.312;9.790;2024-01-10T08:33:19;29.00;;;8.63;;
39890;SDS011;25564;53.312;9.790;2024-01-10T08:35:51;17.88;;;7.07;;
39890;SDS011;25564;53.312;9.790;2024-01-10T08:38:22;20.35;;;7.15;;
39890;SDS011;25564;53.312;9.790;2024-01-10T08:40:53;20.58;;;8.13;;
39890;SDS011;25564;53.312;9.790;2024-01-10T08:43:25;22.03;;;7.80;;
39890;SDS011;25564;53.312;9.790;2024-01-10T08:45:56;19.05;;;7.05;;
39890;SDS011;25564;53.312;9.790;2024-01-10T08:48:29;18.05;;;7.13;;
39890;SDS011;25564;53.312;9.790;2024-01-10T08:51:00;17.50;;;6.28;;
39890;SDS011;25564;53.312;9.790;2024-01-10T08:53:32;16.30;;;7.20;;
39890;SDS011;25564;53.312;9.790;2024-01-10T08:59:55;23.98;;;8.13;;
39890;SDS011;25564;53.312;9.790;2024-01-10T09:02:27;20.47;;;8.07;;
39890;SDS011;25564;53.312;9.790;2024-01-10T09:05:00;22.47;;;8.13;;
39890;SDS011;25564;53.312;9.790;2024-01-10T09:07:31;23.53;;;8.37;;
39890;SDS011;25564;53.312;9.790;2024-01-10T09:10:03;21.90;;;8.33;;
39890;SDS011;25564;53.312;9.790;2024-01-10T09:12:36;18.47;;;7.00;;
39890;SDS011;25564;53.312;9.790;2024-01-10T09:15:08;17.33;;;6.95;;
39890;SDS011;25564;53.312;9.790;2024-01-10T09:17:44;19.63;;;7.43;;
39890;SDS011;25564;53.312;9.790;2024-01-10T09:20:16;19.37;;;7.03;;
39890;SDS011;25564;53.312;9.790;2024-01-10T09:22:48;19.10;;;7.87;;
39890;SDS011;25564;53.312;9.790;2024-01-10T09:25:20;19.43;;;7.57;;
39890;SDS011;25564;53.312;9.790;2024-01-10T09:27:51;18.87;;;7.20;;
39890;SDS011;25564;53.312;9.790;2024-01-10T09:30:23;23.53;;;8.27;;
39890;SDS011;25564;53.312;9.790;2024-01-10T09:32:55;21.30;;;8.57;;
39890;SDS011;25564;53.312;9.790;2024-01-10T09:35:27;27.70;;;9.53;;
39890;SDS011;25564;53.312;9.790;2024-01-10T09:37:59;26.10;;;10.23;;
39890;SDS011;25564;53.312;9.790;2024-01-10T09:40:31;19.30;;;7.63;;
39890;SDS011;25564;53.312;9.790;2024-01-10T09:43:03;23.33;;;9.48;;
39890;SDS011;25564;53.312;9.790;2024-01-10T09:45:36;18.47;;;8.17;;
39890;SDS011;25564;53.312;9.790;2024-01-10T09:48:18;22.67;;;8.73;;
39890;SDS011;25564;53.312;9.790;2024-01-10T09:50:50;22.17;;;9.40;;
39890;SDS011;25564;53.312;9.790;2024-01-10T09:53:23;19.13;;;9.43;;
39890;SDS011;25564;53.312;9.790;2024-01-10T09:55:56;21.10;;;8.23;;
39890;SDS011;25564;53.312;9.790;2024-01-10T09:58:28;23.20;;;9.27;;
39890;SDS011;25564;53.312;9.790;2024-01-10T10:00:59;22.03;;;8.63;;
39890;SDS011;25564;53.312;9.790;2024-01-10T10:03:36;21.93;;;8.47;;
39890;SDS011;25564;53.312;9.790;2024-01-10T10:06:09;26.70;;;9.80;;
39890;SDS011;25564;53.312;9.790;2024-01-10T10:08:45;20.57;;;9.37;;
39890;SDS011;25564;53.312;9.790;2024-01-10T10:11:17;21.60;;;8.20;;
39890;SDS011;25564;53.312;9.790;2024-01-10T10:13:49;25.70;;;10.33;;
39890;SDS011;25564;53.312;9.790;2024-01-10T10:16:22;23.63;;;9.50;;
39890;SDS011;25564;53.312;9.790;2024-01-10T10:18:56;20.90;;;8.00;;
39890;SDS011;25564;53.312;9.790;2024-01-10T10:21:31;23.65;;;7.95;;
39890;SDS011;25564;53.312;9.790;2024-01-10T10:24:03;28.83;;;9.87;;
39890;SDS011;25564;53.312;9.790;2024-01-10T10:26:36;24.13;;;9.97;;
39890;SDS011;25564;53.312;9.790;2024-01-10T10:29:07;24.70;;;9.17;;
39890;SDS011;25564;53.312;9.790;2024-01-10T10:31:39;18.23;;;8.83;;
39890;SDS011;25564;53.312;9.790;2024-01-10T10:34:11;22.77;;;8.83;;
39890;SDS011;25564;53.312;9.790;2024-01-10T10:36:42;25.50;;;8.10;;
39890;SDS011;25564;53.312;9.790;2024-01-10T10:39:17;17.30;;;8.13;;
39890;SDS011;25564;53.312;9.790;2024-01-10T10:41:49;20.93;;;8.17;;
39890;SDS011;25564;53.312;9.790;2024-01-10T10:44:23;21.90;;;8.60;;
39890;SDS011;25564;53.312;9.790;2024-01-10T10:46:56;21.93;;;8.30;;
39890;SDS011;25564;53.312;9.790;2024-01-10T10:49:53;20.70;;;7.70;;
39890;SDS011;25564;53.312;9.790;2024-01-10T10:52:25;17.73;;;7.60;;
39890;SDS011;25564;53.312;9.790;2024-01-10T10:54:57;18.67;;;7.83;;
39890;SDS011;25564;53.312;9.790;2024-01-10T10:57:29;21.30;;;7.70;;
39890;SDS011;25564;53.312;9.790;2024-01-10T11:00:01;21.30;;;7.53;;
39890;SDS011;25564;53.312;9.790;2024-01-10T11:02:33;17.70;;;7.20;;
39890;SDS011;25564;53.312;9.790;2024-01-10T11:05:06;16.80;;;7.10;;
39890;SDS011;25564;53.312;9.790;2024-01-10T11:07:41;16.20;;;6.50;;
39890;SDS011;25564;53.312;9.790;2024-01-10T11:10:25;16.93;;;6.50;;
39890;SDS011;25564;53.312;9.790;2024-01-10T11:19:30;18.30;;;6.67;;
39890;SDS011;25564;53.312;9.790;2024-01-10T11:25:31;18.93;;;6.90;;
39890;SDS011;25564;53.312;9.790;2024-01-10T11:28:06;18.90;;;8.07;;
39890;SDS011;25564;53.312;9.790;2024-01-10T11:30:49;21.53;;;8.27;;
39890;SDS011;25564;53.312;9.790;2024-01-10T11:33:25;16.83;;;6.67;;
39890;SDS011;25564;53.312;9.790;2024-01-10T11:36:12;21.40;;;8.57;;
39890;SDS011;25564;53.312;9.790;2024-01-10T11:46:47;20.27;;;7.40;;
39890;SDS011;25564;53.312;9.790;2024-01-10T11:49:20;19.63;;;7.00;;
39890;SDS011;25564;53.312;9.790;2024-01-10T11:51:54;14.47;;;6.47;;
39890;SDS011;25564;53.312;9.790;2024-01-10T11:54:40;16.50;;;7.27;;
39890;SDS011;25564;53.312;9.790;2024-01-10T11:57:23;18.80;;;7.13;;
39890;SDS011;25564;53.312;9.790;2024-01-10T12:00:00;16.00;;;6.93;;
39890;SDS011;25564;53.312;9.790;2024-01-10T12:02:32;18.17;;;7.70;;
39890;SDS011;25564;53.312;9.790;2024-01-10T12:05:04;15.93;;;6.80;;
39890;SDS011;25564;53.312;9.790;2024-01-10T12:07:38;17.90;;;7.23;;
39890;SDS011;25564;53.312;9.790;2024-01-10T12:10:11;23.00;;;8.27;;
39890;SDS011;25564;53.312;9.790;2024-01-10T12:12:42;18.70;;;7.20;;
39890;SDS011;25564;53.312;9.790;2024-01-10T12:15:14;16.60;;;7.30;;
39890;SDS011;25564;53.312;9.790;2024-01-10T12:17:45;18.50;;;7.80;;
39890;SDS011;25564;53.312;9.790;2024-01-10T12:20:17;18.67;;;7.67;;
39890;SDS011;25564;53.312;9.790;2024-01-10T12:22:49;18.10;;;8.43;;
39890;SDS011;25564;53.312;9.790;2024-01-10T12:25:20;22.53;;;7.73;;
39890;SDS011;25564;53.312;9.790;2024-01-10T12:27:52;17.50;;;7.30;;
39890;SDS011;25564;53.312;9.790;2024-01-10T12:30:23;19.43;;;7.63;;
39890;SDS011;25564;53.312;9.790;2024-01-10T12:33:00;20.00;;;7.47;;
39890;SDS011;25564;53.312;9.790;2024-01-10T12:35:32;22.30;;;8.43;;
39890;SDS011;25564;53.312;9.790;2024-01-10T12:38:04;16.93;;;6.97;;
39890;SDS011;25564;53.312;9.790;2024-01-10T12:40:36;16.93;;;7.17;;
39890;SDS011;25564;53.312;9.790;2024-01-10T12:43:09;12.73;;;5.37;;
39890;SDS011;25564;53.312;9.790;2024-01-10T12:45:41;14.63;;;6.47;;
39890;SDS011;25564;53.312;9.790;2024-01-10T12:48:14;14.57;;;6.43;;
39890;SDS011;25564;53.312;9.790;2024-01-10T12:50:51;17.07;;;6.67;;
39890;SDS011;25564;53.312;9.790;2024-01-10T12:53:23;12.47;;;5.90;;
39890;SDS011;25564;53.312;9.790;2024-01-10T12:55:55;13.97;;;6.20;;
39890;SDS011;25564;53.312;9.790;2024-01-10T12:58:27;13.50;;;5.27;;
39890;SDS011;25564;53.312;9.790;2024-01-10T13:00:59;16.83;;;6.30;;
39890;SDS011;25564;53.312;9.790;2024-01-10T13:03:30;15.63;;;5.50;;
39890;SDS011;25564;53.312;9.790;2024-01-10T13:06:02;12.77;;;5.13;;
39890;SDS011;25564;53.312;9.790;2024-01-10T13:08:34;13.37;;;5.63;;
39890;SDS011;25564;53.312;9.790;2024-01-10T13:11:05;13.73;;;5.43;;
39890;SDS011;25564;53.312;9.790;2024-01-10T13:13:40;13.13;;;5.77;;
39890;SDS011;25564;53.312;9.790;2024-01-10T13:16:12;11.50;;;5.20;;
39890;SDS011;25564;53.312;9.790;2024-01-10T13:18:44;13.70;;;6.30;;
39890;SDS011;25564;53.312;9.790;2024-01-10T13:21:16;11.50;;;6.27;;
39890;SDS011;25564;53.312;9.790;2024-01-10T13:23:47;12.03;;;5.10;;
39890;SDS011;25564;53.312;9.790;2024-01-10T13:26:18;13.57;;;5.37;;
39890;SDS011;25564;53.312;9.790;2024-01-10T13:28:50;15.20;;;5.87;;
39890;SDS011;25564;53.312;9.790;2024-01-10T13:31:22;12.47;;;5.70;;
39890;SDS011;25564;53.312;9.790;2024-01-10T13:33:53;12.13;;;5.47;;
39890;SDS011;25564;53.312;9.790;2024-01-10T13:36:26;12.47;;;5.23;;
39890;SDS011;25564;53.312;9.790;2024-01-10T13:38:58;13.07;;;5.33;;
39890;SDS011;25564;53.312;9.790;2024-01-10T13:41:29;13.17;;;5.07;;
39890;SDS011;25564;53.312;9.790;2024-01-10T13:44:01;12.63;;;5.67;;
39890;SDS011;25564;53.312;9.790;2024-01-10T13:46:36;14.82;;;5.07;;
39890;SDS011;25564;53.312;9.790;2024-01-10T13:49:08;12.47;;;5.73;;
39890;SDS011;25564;53.312;9.790;2024-01-10T13:51:39;15.47;;;6.07;;
39890;SDS011;25564;53.312;9.790;2024-01-10T13:54:12;12.93;;;6.57;;
39890;SDS011;25564;53.312;9.790;2024-01-10T13:56:43;14.93;;;6.87;;
39890;SDS011;25564;53.312;9.790;2024-01-10T13:59:15;13.90;;;6.33;;
39890;SDS011;25564;53.312;9.790;2024-01-10T14:01:46;16.63;;;6.40;;
39890;SDS011;25564;53.312;9.790;2024-01-10T14:04:18;12.00;;;4.67;;
39890;SDS011;25564;53.312;9.790;2024-01-10T14:06:54;12.40;;;5.80;;
39890;SDS011;25564;53.312;9.790;2024-01-10T14:09:25;14.30;;;5.80;;
39890;SDS011;25564;53.312;9.790;2024-01-10T14:11:57;13.93;;;6.33;;
39890;SDS011;25564;53.312;9.790;2024-01-10T14:14:28;15.37;;;6.10;;
39890;SDS011;25564;53.312;9.790;2024-01-10T14:17:00;13.83;;;6.27;;
39890;SDS011;25564;53.312;9.790;2024-01-10T14:19:32;13.97;;;6.63;;
39890;SDS011;25564;53.312;9.790;2024-01-10T14:22:03;16.03;;;6.90;;
39890;SDS011;25564;53.312;9.790;2024-01-10T14:24:47;14.17;;;5.83;;
39890;SDS011;25564;53.312;9.790;2024-01-10T14:27:19;19.60;;;7.77;;
39890;SDS011;25564;53.312;9.790;2024-01-10T14:29:51;11.97;;;6.20;;
39890;SDS011;25564;53.312;9.790;2024-01-10T14:32:22;15.07;;;6.47;;
39890;SDS011;25564;53.312;9.790;2024-01-10T14:34:54;14.43;;;6.83;;
39890;SDS011;25564;53.312;9.790;2024-01-10T14:37:26;17.20;;;7.27;;
39890;SDS011;25564;53.312;9.790;2024-01-10T14:39:58;11.60;;;5.83;;
39890;SDS011;25564;53.312;9.790;2024-01-10T14:42:29;17.03;;;6.57;;
39890;SDS011;25564;53.312;9.790;2024-01-10T14:45:01;15.80;;;6.53;;
39890;SDS011;25564;53.312;9.790;2024-01-10T14:47:33;16.73;;;7.23;;
39890;SDS011;25564;53.312;9.790;2024-01-10T14:50:04;17.00;;;6.83;;
39890;SDS011;25564;53.312;9.790;2024-01-10T14:52:36;16.27;;;7.40;;
39890;SDS011;25564;53.312;9.790;2024-01-10T14:55:08;12.87;;;5.80;;
39890;SDS011;25564;53.312;9.790;2024-01-10T14:57:39;16.03;;;7.13;;
39890;SDS011;25564;53.312;9.790;2024-01-10T15:00:11;14.17;;;6.67;;
39890;SDS011;25564;53.312;9.790;2024-01-10T15:02:42;14.50;;;6.97;;
39890;SDS011;25564;53.312;9.790;2024-01-10T15:05:14;18.30;;;7.07;;
39890;SDS011;25564;53.312;9.790;2024-01-10T15:07:45;16.67;;;7.57;;
39890;SDS011;25564;53.312;9.790;2024-01-10T15:10:17;19.10;;;6.67;;
39890;SDS011;25564;53.312;9.790;2024-01-10T15:12:50;17.57;;;6.57;;
39890;SDS011;25564;53.312;9.790;2024-01-10T15:15:21;19.93;;;7.47;;
39890;SDS011;25564;53.312;9.790;2024-01-10T15:17:53;18.13;;;7.07;;
39890;SDS011;25564;53.312;9.790;2024-01-10T15:20:24;18.37;;;7.83;;
39890;SDS011;25564;53.312;9.790;2024-01-10T15:22:56;18.37;;;7.53;;
39890;SDS011;25564;53.312;9.790;2024-01-10T15:25:27;18.10;;;7.53;;
39890;SDS011;25564;53.312;9.790;2024-01-10T15:27:59;18.20;;;8.07;;